createdAt,value
2022-08-03T00:00:26.280Z,16.93
2022-08-03T00:02:53.016Z,16.94
2022-08-03T00:05:19.674Z,16.93
2022-08-03T00:07:46.114Z,16.89
2022-08-03T00:10:15.090Z,16.84
2022-08-03T00:12:41.564Z,16.78
2022-08-03T00:15:11.261Z,16.75
2022-08-03T00:17:53.358Z,16.67
2022-08-03T00:20:23.648Z,16.74
2022-08-03T00:22:50.775Z,16.72
2022-08-03T00:25:18.146Z,16.66
2022-08-03T00:27:45.100Z,16.67
2022-08-03T00:30:11.871Z,16.58
2022-08-03T00:32:41.385Z,16.48
2022-08-03T00:35:28.690Z,16.38
2022-08-03T00:37:58.888Z,16.42
2022-08-03T00:40:25.395Z,16.39
2022-08-03T00:42:57.894Z,16.37
2022-08-03T00:45:29.807Z,16.41
2022-08-03T00:47:56.826Z,16.37
2022-08-03T00:50:24.779Z,16.36
2022-08-03T00:52:56.328Z,16.34
2022-08-03T00:55:23.664Z,16.21
2022-08-03T00:57:50.883Z,16.30
2022-08-03T01:00:20.442Z,16.26
2022-08-03T01:02:49.827Z,16.20
2022-08-03T01:05:16.450Z,16.19
2022-08-03T01:07:59.984Z,16.20
2022-08-03T01:10:35.617Z,16.17
2022-08-03T01:14:03.920Z,16.12
2022-08-03T01:16:42.086Z,16.07
2022-08-03T01:19:36.413Z,16.05
2022-08-03T01:22:30.564Z,16.02
2022-08-03T01:25:06.305Z,15.91
2022-08-03T01:27:56.802Z,15.90
2022-08-03T01:30:35.278Z,15.90
2022-08-03T01:33:07.254Z,15.86
2022-08-03T01:36:00.527Z,15.91
2022-08-03T01:38:36.050Z,15.93
2022-08-03T01:41:10.984Z,15.88
2022-08-03T01:44:26.702Z,15.85
2022-08-03T01:46:28.612Z,15.77
2022-08-03T01:48:56.246Z,15.75
2022-08-03T01:51:23.451Z,15.62
2022-08-03T01:53:54.779Z,15.61
2022-08-03T01:56:24.901Z,15.58
2022-08-03T01:58:53.103Z,15.56
2022-08-03T02:01:22.694Z,15.63
2022-08-03T02:04:00.808Z,15.63
2022-08-03T02:06:59.988Z,15.61
2022-08-03T02:09:20.038Z,15.62
2022-08-03T02:11:47.526Z,15.57
2022-08-03T02:14:15.905Z,15.62
2022-08-03T02:16:45.468Z,15.61
2022-08-03T02:19:12.353Z,15.57
2022-08-03T02:21:57.471Z,15.49
2022-08-03T02:24:26.351Z,15.45
2022-08-03T02:26:56.518Z,15.41
2022-08-03T02:29:39.277Z,15.38
2022-08-03T02:32:12.571Z,15.44
2022-08-03T02:34:40.819Z,15.39
2022-08-03T02:37:10.332Z,15.40
2022-08-03T02:39:39.449Z,15.27
2022-08-03T02:42:08.760Z,15.34
2022-08-03T02:44:37.647Z,15.30
2022-08-03T02:47:09.720Z,15.27
2022-08-03T02:49:49.960Z,15.25
2022-08-03T02:52:19.854Z,15.25
2022-08-03T02:54:48.742Z,15.17
2022-08-03T02:57:16.217Z,15.26
2022-08-03T02:59:44.564Z,15.24
2022-08-03T03:02:12.403Z,15.18
2022-08-03T03:04:43.177Z,15.19
2022-08-03T03:07:27.045Z,15.08
2022-08-03T03:09:56.385Z,15.11
2022-08-03T03:12:24.619Z,15.11
2022-08-03T03:14:51.116Z,15.14
2022-08-03T03:17:18.990Z,15.09
2022-08-03T03:19:46.419Z,15.06
2022-08-03T03:22:15.275Z,15.02
2022-08-03T03:24:44.215Z,15.04
2022-08-03T03:27:11.086Z,14.99
2022-08-03T03:29:43.826Z,15.03
2022-08-03T03:32:10.711Z,15.02
2022-08-03T03:34:37.592Z,14.99
2022-08-03T03:37:05.121Z,14.96
2022-08-03T03:39:31.892Z,14.91
2022-08-03T03:41:58.564Z,14.87
2022-08-03T03:44:29.607Z,14.74
2022-08-03T03:46:57.994Z,14.73
2022-08-03T03:49:24.841Z,14.73
2022-08-03T03:51:55.283Z,14.70
2022-08-03T03:54:21.837Z,14.70
2022-08-03T03:56:52.392Z,14.72
2022-08-03T03:59:18.985Z,14.73
2022-08-03T04:01:45.780Z,14.75
2022-08-03T04:04:30.677Z,14.81
2022-08-03T04:07:16.031Z,14.76
2022-08-03T04:10:08.897Z,14.78
2022-08-03T04:12:50.406Z,14.79
2022-08-03T04:15:20.783Z,14.78
2022-08-03T04:17:50.259Z,14.80
2022-08-03T04:20:20.590Z,14.89
2022-08-03T04:22:50.952Z,14.93
2022-08-03T04:25:21.022Z,14.96
2022-08-03T04:28:27.405Z,14.98
2022-08-03T04:30:47.480Z,15.08
2022-08-03T04:33:16.487Z,15.18
2022-08-03T04:35:54.729Z,15.20
2022-08-03T04:38:30.530Z,15.32
2022-08-03T04:40:57.368Z,15.38
2022-08-03T04:43:25.296Z,15.53
2022-08-03T04:45:53.141Z,15.63
2022-08-03T04:48:20.251Z,15.97
2022-08-03T04:50:47.904Z,16.27
2022-08-03T04:53:14.400Z,16.90
2022-08-03T04:55:40.913Z,17.91
2022-08-03T04:58:07.481Z,18.74
2022-08-03T05:00:34.016Z,19.63
2022-08-03T05:03:00.499Z,20.58
2022-08-03T05:05:27.033Z,21.29
2022-08-03T05:08:13.559Z,22.12
2022-08-03T05:10:40.522Z,21.98
2022-08-03T05:13:11.960Z,22.48
2022-08-03T05:15:43.293Z,22.73
2022-08-03T05:18:13.856Z,23.29
2022-08-03T05:20:40.900Z,23.56
2022-08-03T05:23:07.402Z,23.87
2022-08-03T05:25:33.918Z,23.60
2022-08-03T05:28:00.433Z,23.65
2022-08-03T05:30:33.671Z,24.19
2022-08-03T05:33:01.259Z,25.17
2022-08-03T05:35:57.922Z,25.59
2022-08-03T05:38:15.385Z,25.65
2022-08-03T05:40:57.163Z,26.43
2022-08-03T05:43:37.212Z,26.69
2022-08-03T05:46:13.021Z,27.50
2022-08-03T05:48:40.080Z,27.79
2022-08-03T05:51:07.802Z,27.70
2022-08-03T05:53:34.628Z,28.26
2022-08-03T05:56:03.404Z,28.81
2022-08-03T05:58:40.026Z,28.94
2022-08-03T06:01:06.604Z,28.58
2022-08-03T06:03:33.073Z,28.93
2022-08-03T06:06:00.007Z,29.08
2022-08-03T06:08:27.121Z,29.87
2022-08-03T06:10:53.599Z,29.96
2022-08-03T06:13:20.075Z,30.18
2022-08-03T06:15:46.597Z,30.13
2022-08-03T06:18:13.071Z,29.49
2022-08-03T06:20:39.546Z,29.38
2022-08-03T06:23:07.503Z,29.90
2022-08-03T06:25:34.022Z,29.80
2022-08-03T06:28:00.584Z,30.52
2022-08-03T06:30:27.286Z,30.05
2022-08-03T06:32:53.737Z,30.44
2022-08-03T06:35:20.505Z,30.56
2022-08-03T06:37:51.576Z,30.28
2022-08-03T06:40:21.734Z,29.96
2022-08-03T06:42:50.958Z,29.43
2022-08-03T06:45:17.881Z,29.50
2022-08-03T06:47:44.575Z,29.82
2022-08-03T06:50:16.185Z,30.31
2022-08-03T06:52:43.899Z,30.95
2022-08-03T06:55:10.393Z,30.64
2022-08-03T06:57:36.895Z,30.91
2022-08-03T07:00:09.141Z,31.96
2022-08-03T07:02:39.722Z,30.93
2022-08-03T07:05:06.892Z,30.41
2022-08-03T07:07:33.569Z,30.56
2022-08-03T07:10:00.050Z,31.13
2022-08-03T07:12:30.283Z,30.37
2022-08-03T07:15:01.382Z,31.01
2022-08-03T07:17:34.225Z,31.23
2022-08-03T07:20:02.584Z,31.83
2022-08-03T07:22:29.035Z,30.88
2022-08-03T07:24:55.592Z,31.44
2022-08-03T07:27:22.497Z,31.45
2022-08-03T07:29:48.994Z,30.92
2022-08-03T07:32:15.605Z,31.28
2022-08-03T07:34:42.239Z,31.43
2022-08-03T07:37:08.826Z,31.29
2022-08-03T07:39:35.262Z,31.44
2022-08-03T07:42:01.772Z,30.54
2022-08-03T07:44:28.242Z,31.45
2022-08-03T07:46:54.771Z,31.92
2022-08-03T07:49:23.319Z,30.68
2022-08-03T07:52:09.821Z,30.68
2022-08-03T07:54:36.398Z,30.40
2022-08-03T07:57:02.918Z,30.79
2022-08-03T07:59:29.358Z,30.36
2022-08-03T08:02:15.931Z,31.33
2022-08-03T08:04:42.558Z,31.37
2022-08-03T08:07:09.333Z,31.91
2022-08-03T08:09:35.844Z,31.50
2022-08-03T08:12:02.680Z,31.05
2022-08-03T08:14:29.769Z,30.89
2022-08-03T08:16:56.224Z,30.22
2022-08-03T08:19:22.661Z,30.23
2022-08-03T08:21:53.505Z,30.65
2022-08-03T08:24:30.450Z,30.73
2022-08-03T08:26:57.815Z,30.69
2022-08-03T08:29:24.344Z,31.16
2022-08-03T08:31:50.885Z,30.45
2022-08-03T08:34:17.322Z,30.89
2022-08-03T08:36:44.049Z,30.30
2022-08-03T08:39:10.532Z,30.40
2022-08-03T08:41:37.042Z,30.76
2022-08-03T08:44:03.995Z,30.85
2022-08-03T08:46:34.176Z,31.64
2022-08-03T08:49:00.790Z,32.42
2022-08-03T08:51:54.651Z,31.90
2022-08-03T08:54:22.810Z,31.83
2022-08-03T08:56:52.662Z,31.75
2022-08-03T08:59:19.866Z,32.02
2022-08-03T09:01:46.433Z,31.69
2022-08-03T09:04:13.312Z,31.32
2022-08-03T09:06:39.826Z,32.15
2022-08-03T09:09:07.489Z,32.33
2022-08-03T09:11:54.471Z,31.38
2022-08-03T09:14:37.104Z,30.94
2022-08-03T09:17:07.204Z,31.09
2022-08-03T09:19:37.009Z,31.20
2022-08-03T09:22:14.774Z,31.61
2022-08-03T09:25:22.779Z,31.90
2022-08-03T09:27:49.817Z,31.95
2022-08-03T09:30:33.276Z,32.05
2022-08-03T09:33:08.315Z,32.64
2022-08-03T09:35:57.342Z,32.67
2022-08-03T09:38:28.019Z,32.33
2022-08-03T09:40:59.914Z,31.59
2022-08-03T09:43:27.795Z,31.66
2022-08-03T09:49:43.151Z,31.98
2022-08-03T09:52:31.296Z,32.36
2022-08-03T09:55:02.208Z,31.55
2022-08-03T09:57:30.809Z,32.34
2022-08-03T10:00:11.930Z,31.48
2022-08-03T10:02:39.316Z,31.29
2022-08-03T10:05:08.225Z,30.68
2022-08-03T10:07:48.206Z,30.89
2022-08-03T10:10:30.726Z,31.05
2022-08-03T10:13:00.020Z,31.55
2022-08-03T10:16:22.023Z,31.15
2022-08-03T10:18:14.147Z,31.37
2022-08-03T10:20:49.342Z,31.40
2022-08-03T10:23:17.758Z,31.39
2022-08-03T10:25:52.641Z,31.02
2022-08-03T10:28:21.215Z,31.62
2022-08-03T10:30:50.291Z,31.86
2022-08-03T10:33:52.012Z,31.83
2022-08-03T10:36:16.395Z,31.75
2022-08-03T10:38:47.246Z,31.81
2022-08-03T10:41:16.569Z,31.67
2022-08-03T10:43:52.843Z,31.36
2022-08-03T10:46:21.327Z,30.94
2022-08-03T10:48:50.585Z,31.15
2022-08-03T10:51:17.376Z,30.90
2022-08-03T10:57:47.454Z,31.13
2022-08-03T11:00:21.533Z,30.74
2022-08-03T11:03:09.166Z,31.06
2022-08-03T11:05:40.667Z,31.10
2022-08-03T11:08:28.512Z,30.64
2022-08-03T11:10:57.848Z,30.37
2022-08-03T11:13:26.315Z,30.44
2022-08-03T11:16:01.713Z,30.84
2022-08-03T11:18:30.104Z,30.28
2022-08-03T11:20:59.207Z,30.31
2022-08-03T11:24:04.362Z,30.46
2022-08-03T11:26:33.878Z,29.85
2022-08-03T11:29:29.548Z,29.53
2022-08-03T11:31:56.241Z,30.25
2022-08-03T11:34:24.574Z,30.22
2022-08-03T11:37:25.209Z,30.00
2022-08-03T11:39:54.886Z,30.09
2022-08-03T11:42:24.539Z,29.76
2022-08-03T11:44:58.349Z,30.33
2022-08-03T11:47:27.825Z,30.04
2022-08-03T11:49:58.953Z,29.77
2022-08-03T11:52:27.232Z,29.98
2022-08-03T11:54:57.109Z,30.39
2022-08-03T11:59:01.446Z,30.38
2022-08-03T12:00:27.253Z,29.81
2022-08-03T12:02:59.156Z,29.97
2022-08-03T12:05:51.243Z,29.91
2022-08-03T12:08:32.665Z,30.58
2022-08-03T12:11:01.955Z,30.56
2022-08-03T12:14:05.736Z,30.72
2022-08-03T12:16:25.497Z,30.65
2022-08-03T12:19:01.664Z,30.70
2022-08-03T12:21:29.447Z,30.64
2022-08-03T12:24:04.073Z,30.05
2022-08-03T12:26:58.556Z,30.14
2022-08-03T12:29:26.543Z,30.40
2022-08-03T12:31:53.081Z,30.82
2022-08-03T12:34:19.706Z,30.73
2022-08-03T12:36:54.371Z,30.50
2022-08-03T12:39:25.497Z,30.68
2022-08-03T12:41:55.305Z,30.81
2022-08-03T12:44:32.659Z,30.37
2022-08-03T12:47:00.556Z,30.93
2022-08-03T12:49:28.279Z,30.73
2022-08-03T12:51:54.795Z,30.93
2022-08-03T12:54:24.653Z,31.24
2022-08-03T12:57:00.948Z,30.86
2022-08-03T12:59:34.858Z,30.40
2022-08-03T13:02:04.483Z,30.54
2022-08-03T13:04:36.833Z,30.94
2022-08-03T13:07:06.473Z,30.70
2022-08-03T13:09:50.341Z,30.30
2022-08-03T13:12:18.912Z,30.94
2022-08-03T13:14:48.822Z,31.08
2022-08-03T13:17:19.011Z,30.97
2022-08-03T13:19:46.478Z,30.67
2022-08-03T13:22:21.059Z,30.90
2022-08-03T13:24:53.462Z,30.67
2022-08-03T13:28:03.348Z,30.98
2022-08-03T13:30:08.559Z,31.30
2022-08-03T13:33:31.448Z,30.69
2022-08-03T13:36:12.228Z,30.87
2022-08-03T13:38:38.831Z,30.80
2022-08-03T13:41:05.909Z,30.79
2022-08-03T13:43:32.515Z,30.85
2022-08-03T13:45:59.063Z,31.04
2022-08-03T13:48:37.375Z,30.81
2022-08-03T13:51:32.735Z,30.23
2022-08-03T13:58:03.563Z,30.61
2022-08-03T14:00:32.967Z,30.89
2022-08-03T14:03:09.163Z,30.82
2022-08-03T14:05:40.238Z,30.88
2022-08-03T14:08:07.516Z,30.68
2022-08-03T14:14:20.438Z,30.45
2022-08-03T14:16:46.910Z,30.50
2022-08-03T14:19:15.922Z,30.38
2022-08-03T14:22:00.279Z,30.62
2022-08-03T14:24:33.419Z,30.02
2022-08-03T14:30:41.035Z,30.33
2022-08-03T14:33:07.482Z,30.45
2022-08-03T14:43:07.394Z,30.55
2022-08-03T14:50:38.729Z,30.03
2022-08-03T14:52:08.434Z,30.23
2022-08-03T14:54:35.000Z,30.37
2022-08-03T14:57:01.693Z,30.11
2022-08-03T14:59:28.253Z,30.07
2022-08-03T15:02:23.350Z,30.35
2022-08-03T15:04:50.496Z,29.95
2022-08-03T15:07:17.075Z,29.94
2022-08-03T15:09:43.672Z,30.01
2022-08-03T15:12:10.225Z,30.24
2022-08-03T15:14:37.894Z,30.15
2022-08-03T15:17:04.835Z,30.35
2022-08-03T15:20:02.751Z,30.26
2022-08-03T15:22:20.826Z,30.12
2022-08-03T15:24:52.335Z,30.25
2022-08-03T15:27:19.172Z,30.03
2022-08-03T15:30:08.716Z,30.18
2022-08-03T15:32:35.063Z,30.12
2022-08-03T15:35:02.117Z,30.03
2022-08-03T15:37:28.680Z,30.15
2022-08-03T15:39:59.862Z,29.95
2022-08-03T15:42:28.522Z,29.86
2022-08-03T15:44:55.070Z,29.99
2022-08-03T15:47:21.937Z,29.93
2022-08-03T15:49:48.607Z,29.85
2022-08-03T15:52:15.105Z,29.65
2022-08-03T15:54:42.864Z,29.63
2022-08-03T15:57:09.537Z,29.52
2022-08-03T15:59:36.095Z,29.39
2022-08-03T16:02:02.720Z,29.51
2022-08-03T16:04:29.271Z,29.41
2022-08-03T16:06:55.752Z,29.41
2022-08-03T16:09:24.186Z,29.36
2022-08-03T16:12:15.527Z,29.28
2022-08-03T16:14:51.995Z,29.21
2022-08-03T16:17:19.532Z,29.21
2022-08-03T16:19:46.258Z,29.15
2022-08-03T16:22:13.405Z,29.11
2022-08-03T16:24:41.190Z,29.06
2022-08-03T16:27:17.624Z,28.95
2022-08-03T16:29:54.474Z,28.87
2022-08-03T16:32:21.026Z,28.84
2022-08-03T16:35:07.308Z,28.82
2022-08-03T16:37:38.814Z,28.79
2022-08-03T16:43:52.675Z,28.50
2022-08-03T16:46:19.131Z,28.39
2022-08-03T16:48:45.644Z,28.36
2022-08-03T16:51:12.439Z,28.30
2022-08-03T16:54:07.201Z,28.21
2022-08-03T16:56:25.451Z,28.18
2022-08-03T16:58:52.398Z,28.13
2022-08-03T17:01:22.098Z,28.07
2022-08-03T17:04:01.646Z,27.94
2022-08-03T17:06:35.856Z,27.90
2022-08-03T17:09:09.099Z,27.80
2022-08-03T17:11:38.852Z,27.74
2022-08-03T17:14:11.755Z,27.61
2022-08-03T17:16:39.143Z,27.57
2022-08-03T17:19:21.619Z,27.45
2022-08-03T17:22:09.047Z,27.39
2022-08-03T17:24:40.974Z,27.27
2022-08-03T17:28:41.571Z,27.18
2022-08-03T17:30:01.397Z,27.11
2022-08-03T17:32:32.560Z,27.04
2022-08-03T17:35:00.761Z,26.89
2022-08-03T17:37:57.712Z,26.78
2022-08-03T17:40:17.976Z,26.66
2022-08-03T17:42:45.393Z,26.61
2022-08-03T17:45:17.158Z,26.46
2022-08-03T17:47:45.335Z,26.36
2022-08-03T17:50:33.826Z,26.23
2022-08-03T17:53:24.015Z,26.21
2022-08-03T17:56:07.701Z,26.08
2022-08-03T17:58:59.238Z,26.00
2022-08-03T18:02:29.544Z,25.91
2022-08-03T18:05:16.432Z,25.72
2022-08-03T18:08:01.595Z,25.68
2022-08-03T18:10:35.505Z,25.54
2022-08-03T18:13:10.874Z,25.47
2022-08-03T18:15:45.377Z,25.47
2022-08-03T18:18:16.129Z,25.24
2022-08-03T18:20:56.833Z,25.24
2022-08-03T18:26:16.409Z,25.17
2022-08-03T18:28:44.209Z,25.13
2022-08-03T18:31:12.619Z,25.15
2022-08-03T18:34:18.877Z,25.00
2022-08-03T18:36:30.506Z,24.72
2022-08-03T18:38:58.710Z,24.55
2022-08-03T18:44:52.792Z,24.25
2022-08-03T18:47:23.961Z,24.02
2022-08-03T18:50:19.334Z,23.89
2022-08-03T18:52:55.072Z,23.77
2022-08-03T18:55:32.927Z,23.64
2022-08-03T18:58:08.947Z,23.52
2022-08-03T19:00:54.714Z,23.40
2022-08-03T19:03:41.280Z,23.31
2022-08-03T19:06:19.913Z,23.19
2022-08-03T19:08:58.664Z,23.06
2022-08-03T19:12:28.316Z,22.94
2022-08-03T19:14:28.805Z,22.80
2022-08-03T19:17:09.148Z,22.65
2022-08-03T19:19:44.411Z,22.60
2022-08-03T19:22:15.997Z,22.49
2022-08-03T19:24:44.340Z,22.42
2022-08-03T19:27:12.308Z,22.34
2022-08-03T19:32:33.735Z,22.16
2022-08-03T19:35:02.488Z,22.04
2022-08-03T19:37:38.117Z,21.99
2022-08-03T19:40:10.933Z,21.94
2022-08-03T19:42:44.392Z,21.88
2022-08-03T19:45:14.713Z,21.81
2022-08-03T19:47:52.529Z,21.71
2022-08-03T19:50:20.401Z,21.68
2022-08-03T19:52:49.618Z,21.60
2022-08-03T19:55:18.084Z,21.49
2022-08-03T19:57:49.155Z,21.46
2022-08-03T20:00:19.569Z,21.40
2022-08-03T20:02:47.051Z,21.29
2022-08-03T20:05:17.974Z,21.23
2022-08-03T20:07:47.765Z,21.14
2022-08-03T20:10:16.395Z,21.14
2022-08-03T20:12:44.604Z,21.11
2022-08-03T20:15:11.513Z,21.03
2022-08-03T20:17:54.882Z,20.95
2022-08-03T20:24:23.753Z,20.80
2022-08-03T20:26:54.134Z,20.74
2022-08-03T20:29:42.532Z,20.69
2022-08-03T20:32:09.631Z,20.65
2022-08-03T20:34:38.363Z,20.61
2022-08-03T20:37:05.210Z,20.55
2022-08-03T20:39:36.051Z,20.49
2022-08-03T20:42:05.093Z,20.30
2022-08-03T20:44:32.218Z,20.32
2022-08-03T20:47:00.752Z,20.31
2022-08-03T20:49:28.139Z,20.24
2022-08-03T20:51:54.635Z,20.20
2022-08-03T20:54:31.043Z,20.21
2022-08-03T20:57:03.728Z,20.14
2022-08-03T20:59:47.333Z,20.10
2022-08-03T21:02:29.471Z,20.02
2022-08-03T21:05:03.289Z,19.94
2022-08-03T21:07:45.608Z,19.90
2022-08-03T21:10:29.745Z,19.82
2022-08-03T21:12:57.900Z,25.15
2022-08-03T21:13:02.300Z,22.28
2022-08-03T21:13:04.759Z,24.41
2022-08-03T21:16:03.334Z,19.64
2022-08-03T21:18:44.962Z,19.58
2022-08-03T21:21:14.932Z,19.54
2022-08-03T21:23:47.988Z,19.44
2022-08-03T21:26:17.017Z,19.46
2022-08-03T21:28:46.353Z,19.37
2022-08-03T21:31:13.679Z,19.29
2022-08-03T21:33:40.930Z,19.27
2022-08-03T21:36:16.787Z,19.25
2022-08-03T21:38:44.053Z,19.26
2022-08-03T21:41:14.118Z,19.21
2022-08-03T21:43:40.742Z,19.21
2022-08-03T21:46:08.116Z,19.16
2022-08-03T21:48:39.872Z,19.02
2022-08-03T21:51:07.068Z,18.99
2022-08-03T21:54:04.006Z,18.92
2022-08-03T21:56:22.341Z,18.88
2022-08-03T21:58:59.940Z,18.86
2022-08-03T22:01:28.356Z,18.85
2022-08-03T22:04:11.966Z,18.77
2022-08-03T22:06:54.802Z,18.73
2022-08-03T22:09:21.730Z,18.70
2022-08-03T22:11:50.924Z,18.66
2022-08-03T22:14:17.643Z,18.60
2022-08-03T22:16:44.778Z,18.55
2022-08-03T22:19:11.563Z,18.49
2022-08-03T22:21:38.407Z,18.45
2022-08-03T22:24:06.304Z,18.44
2022-08-03T22:26:35.844Z,18.35
2022-08-03T22:29:07.313Z,18.36
2022-08-03T22:31:57.805Z,18.32
2022-08-03T22:34:26.743Z,18.30
2022-08-03T22:37:00.408Z,18.25
2022-08-03T22:39:28.285Z,18.25
2022-08-03T22:41:59.835Z,18.16
2022-08-03T22:44:27.561Z,18.23
2022-08-03T22:46:55.467Z,18.12
2022-08-03T22:49:22.770Z,18.14
2022-08-03T22:51:51.624Z,18.14
2022-08-03T22:54:18.266Z,18.15
2022-08-03T22:56:46.994Z,18.14
2022-08-03T22:59:39.830Z,18.16
2022-08-03T23:02:15.363Z,18.17
2022-08-03T23:04:54.965Z,18.26
2022-08-03T23:07:28.625Z,18.28
2022-08-03T23:09:56.786Z,18.30
2022-08-03T23:12:23.904Z,18.26
2022-08-03T23:14:56.329Z,18.32
2022-08-03T23:17:24.055Z,18.39
2022-08-03T23:19:52.626Z,18.40
2022-08-03T23:22:30.320Z,18.44
2022-08-03T23:24:58.530Z,18.42
2022-08-03T23:27:27.197Z,18.34
2022-08-03T23:29:54.010Z,18.40
2022-08-03T23:32:21.085Z,18.35
2022-08-03T23:35:07.643Z,18.28
2022-08-03T23:38:10.818Z,18.39
2022-08-03T23:40:29.675Z,18.30
2022-08-03T23:42:57.297Z,18.18
2022-08-03T23:45:25.629Z,18.23
2022-08-03T23:47:52.057Z,18.39
2022-08-03T23:50:18.700Z,18.37
2022-08-03T23:52:53.031Z,18.31
2022-08-03T23:55:40.742Z,18.40
2022-08-03T23:58:28.341Z,18.35
